sensor_id;sensor_type;location;lat;lon;timestamp;P1;durP1;ratioP1;P2;durP2;ratioP2
12715;SDS011;6422;49.938;9.124;2023-01-30T00:01:13;9.77;;;3.40;;
12715;SDS011;6422;49.938;9.124;2023-01-30T00:03:38;9.47;;;3.80;;
12715;SDS011;6422;49.938;9.124;2023-01-30T00:06:03;6.13;;;3.20;;
12715;SDS011;6422;49.938;9.124;2023-01-30T00:08:29;6.53;;;3.03;;
12715;SDS011;6422;49.938;9.124;2023-01-30T00:10:54;6.90;;;3.40;;
12715;SDS011;6422;49.938;9.124;2023-01-30T00:13:19;6.20;;;3.57;;
12715;SDS011;6422;49.938;9.124;2023-01-30T00:15:44;6.00;;;3.30;;
12715;SDS011;6422;49.938;9.124;2023-01-30T00:18:09;6.90;;;3.33;;
12715;SDS011;6422;49.938;9.124;2023-01-30T00:20:35;3.83;;;2.67;;
12715;SDS011;6422;49.938;9.124;2023-01-30T00:23:00;4.80;;;2.33;;
12715;SDS011;6422;49.938;9.124;2023-01-30T00:25:26;4.60;;;3.10;;
12715;SDS011;6422;49.938;9.124;2023-01-30T00:27:51;4.30;;;2.60;;
12715;SDS011;6422;49.938;9.124;2023-01-30T00:30:16;6.83;;;2.90;;
12715;SDS011;6422;49.938;9.124;2023-01-30T00:32:41;5.07;;;2.53;;
12715;SDS011;6422;49.938;9.124;2023-01-30T00:35:06;5.53;;;2.97;;
12715;SDS011;6422;49.938;9.124;2023-01-30T00:37:32;4.40;;;2.43;;
12715;SDS011;6422;49.938;9.124;2023-01-30T00:39:57;5.43;;;3.00;;
12715;SDS011;6422;49.938;9.124;2023-01-30T00:42:22;6.13;;;2.60;;
12715;SDS011;6422;49.938;9.124;2023-01-30T00:45:07;5.87;;;3.13;;
12715;SDS011;6422;49.938;9.124;2023-01-30T00:47:51;3.33;;;2.40;;
12715;SDS011;6422;49.938;9.124;2023-01-30T00:50:17;5.72;;;2.83;;
12715;SDS011;6422;49.938;9.124;2023-01-30T00:52:42;3.77;;;2.40;;
12715;SDS011;6422;49.938;9.124;2023-01-30T00:55:07;4.88;;;2.90;;
12715;SDS011;6422;49.938;9.124;2023-01-30T00:57:33;7.30;;;2.93;;
12715;SDS011;6422;49.938;9.124;2023-01-30T00:59:58;4.45;;;2.53;;
12715;SDS011;6422;49.938;9.124;2023-01-30T01:02:23;6.47;;;3.17;;
12715;SDS011;6422;49.938;9.124;2023-01-30T01:04:48;5.82;;;3.17;;
12715;SDS011;6422;49.938;9.124;2023-01-30T01:07:13;4.85;;;3.28;;
12715;SDS011;6422;49.938;9.124;2023-01-30T01:09:39;9.97;;;2.63;;
12715;SDS011;6422;49.938;9.124;2023-01-30T01:12:04;8.67;;;3.27;;
12715;SDS011;6422;49.938;9.124;2023-01-30T01:14:30;6.63;;;3.47;;
12715;SDS011;6422;49.938;9.124;2023-01-30T01:16:55;8.37;;;3.70;;
12715;SDS011;6422;49.938;9.124;2023-01-30T01:19:20;7.30;;;3.63;;
12715;SDS011;6422;49.938;9.124;2023-01-30T01:21:45;6.90;;;3.22;;
12715;SDS011;6422;49.938;9.124;2023-01-30T01:24:11;7.38;;;4.22;;
12715;SDS011;6422;49.938;9.124;2023-01-30T01:26:37;24.30;;;4.67;;
12715;SDS011;6422;49.938;9.124;2023-01-30T01:29:02;6.60;;;3.80;;
12715;SDS011;6422;49.938;9.124;2023-01-30T01:31:27;7.70;;;4.10;;
12715;SDS011;6422;49.938;9.124;2023-01-30T01:33:53;6.20;;;3.72;;
12715;SDS011;6422;49.938;9.124;2023-01-30T01:36:18;7.70;;;4.10;;
12715;SDS011;6422;49.938;9.124;2023-01-30T01:38:43;7.80;;;3.33;;
12715;SDS011;6422;49.938;9.124;2023-01-30T01:41:09;8.10;;;3.80;;
12715;SDS011;6422;49.938;9.124;2023-01-30T01:43:36;7.90;;;3.70;;
12715;SDS011;6422;49.938;9.124;2023-01-30T01:46:08;5.43;;;3.00;;
12715;SDS011;6422;49.938;9.124;2023-01-30T01:48:43;7.47;;;2.90;;
12715;SDS011;6422;49.938;9.124;2023-01-30T01:51:11;5.70;;;3.30;;
12715;SDS011;6422;49.938;9.124;2023-01-30T01:53:39;5.37;;;2.60;;
12715;SDS011;6422;49.938;9.124;2023-01-30T01:56:05;4.60;;;2.30;;
12715;SDS011;6422;49.938;9.124;2023-01-30T01:58:35;7.90;;;3.63;;
12715;SDS011;6422;49.938;9.124;2023-01-30T02:01:01;4.27;;;2.40;;
12715;SDS011;6422;49.938;9.124;2023-01-30T02:03:27;4.40;;;2.90;;
12715;SDS011;6422;49.938;9.124;2023-01-30T02:05:55;5.53;;;2.73;;
12715;SDS011;6422;49.938;9.124;2023-01-30T02:08:29;6.27;;;3.47;;
12715;SDS011;6422;49.938;9.124;2023-01-30T02:10:57;5.77;;;3.30;;
12715;SDS011;6422;49.938;9.124;2023-01-30T02:13:24;6.13;;;2.43;;
12715;SDS011;6422;49.938;9.124;2023-01-30T02:15:49;2.83;;;1.90;;
12715;SDS011;6422;49.938;9.124;2023-01-30T02:18:15;4.90;;;2.17;;
12715;SDS011;6422;49.938;9.124;2023-01-30T02:23:43;3.90;;;2.73;;
12715;SDS011;6422;49.938;9.124;2023-01-30T02:33:36;3.22;;;2.20;;
12715;SDS011;6422;49.938;9.124;2023-01-30T02:36:14;4.70;;;2.87;;
12715;SDS011;6422;49.938;9.124;2023-01-30T02:38:44;3.93;;;2.10;;
12715;SDS011;6422;49.938;9.124;2023-01-30T02:41:19;7.30;;;2.77;;
12715;SDS011;6422;49.938;9.124;2023-01-30T02:43:57;4.60;;;2.23;;
12715;SDS011;6422;49.938;9.124;2023-01-30T02:46:25;4.70;;;2.60;;
12715;SDS011;6422;49.938;9.124;2023-01-30T02:48:55;4.77;;;2.17;;
12715;SDS011;6422;49.938;9.124;2023-01-30T02:51:33;6.33;;;2.70;;
12715;SDS011;6422;49.938;9.124;2023-01-30T02:53:58;6.47;;;3.00;;
12715;SDS011;6422;49.938;9.124;2023-01-30T02:56:24;6.13;;;2.33;;
12715;SDS011;6422;49.938;9.124;2023-01-30T02:58:51;3.17;;;1.77;;
12715;SDS011;6422;49.938;9.124;2023-01-30T03:01:29;5.70;;;2.63;;
12715;SDS011;6422;49.938;9.124;2023-01-30T03:04:01;4.83;;;2.27;;
12715;SDS011;6422;49.938;9.124;2023-01-30T03:09:15;5.30;;;2.40;;
12715;SDS011;6422;49.938;9.124;2023-01-30T03:14:31;4.97;;;2.20;;
12715;SDS011;6422;49.938;9.124;2023-01-30T03:17:00;5.07;;;2.73;;
12715;SDS011;6422;49.938;9.124;2023-01-30T03:19:28;4.93;;;2.37;;
12715;SDS011;6422;49.938;9.124;2023-01-30T03:21:54;6.87;;;2.50;;
12715;SDS011;6422;49.938;9.124;2023-01-30T03:24:19;4.65;;;2.75;;
12715;SDS011;6422;49.938;9.124;2023-01-30T03:26:50;8.63;;;2.47;;
12715;SDS011;6422;49.938;9.124;2023-01-30T03:29:16;4.20;;;2.30;;
12715;SDS011;6422;49.938;9.124;2023-01-30T03:31:41;4.93;;;2.43;;
12715;SDS011;6422;49.938;9.124;2023-01-30T03:34:07;5.97;;;2.20;;
12715;SDS011;6422;49.938;9.124;2023-01-30T03:36:32;5.83;;;2.83;;
12715;SDS011;6422;49.938;9.124;2023-01-30T03:38:57;2.97;;;2.13;;
12715;SDS011;6422;49.938;9.124;2023-01-30T03:41:22;2.90;;;2.00;;
12715;SDS011;6422;49.938;9.124;2023-01-30T03:43:47;6.77;;;3.17;;
12715;SDS011;6422;49.938;9.124;2023-01-30T03:46:13;4.40;;;2.13;;
12715;SDS011;6422;49.938;9.124;2023-01-30T03:48:38;3.60;;;2.28;;
12715;SDS011;6422;49.938;9.124;2023-01-30T03:51:03;4.60;;;2.78;;
12715;SDS011;6422;49.938;9.124;2023-01-30T03:53:28;5.83;;;2.97;;
12715;SDS011;6422;49.938;9.124;2023-01-30T03:55:53;6.07;;;2.55;;
12715;SDS011;6422;49.938;9.124;2023-01-30T03:58:19;4.43;;;3.00;;
12715;SDS011;6422;49.938;9.124;2023-01-30T04:00:44;7.82;;;3.72;;
12715;SDS011;6422;49.938;9.124;2023-01-30T04:03:09;3.83;;;2.00;;
12715;SDS011;6422;49.938;9.124;2023-01-30T04:05:34;4.73;;;2.07;;
12715;SDS011;6422;49.938;9.124;2023-01-30T04:07:59;5.35;;;2.60;;
12715;SDS011;6422;49.938;9.124;2023-01-30T04:10:25;2.90;;;2.05;;
12715;SDS011;6422;49.938;9.124;2023-01-30T04:12:50;5.80;;;2.43;;
12715;SDS011;6422;49.938;9.124;2023-01-30T04:15:15;3.40;;;2.23;;
12715;SDS011;6422;49.938;9.124;2023-01-30T04:17:44;5.20;;;2.47;;
12715;SDS011;6422;49.938;9.124;2023-01-30T04:20:09;6.77;;;2.03;;
12715;SDS011;6422;49.938;9.124;2023-01-30T04:22:34;4.53;;;2.40;;
12715;SDS011;6422;49.938;9.124;2023-01-30T04:25:00;7.30;;;3.13;;
12715;SDS011;6422;49.938;9.124;2023-01-30T04:27:25;5.57;;;2.33;;
12715;SDS011;6422;49.938;9.124;2023-01-30T04:29:50;3.80;;;2.88;;
12715;SDS011;6422;49.938;9.124;2023-01-30T04:32:15;5.93;;;2.90;;
12715;SDS011;6422;49.938;9.124;2023-01-30T04:34:40;3.45;;;2.33;;
12715;SDS011;6422;49.938;9.124;2023-01-30T04:37:07;6.43;;;3.20;;
12715;SDS011;6422;49.938;9.124;2023-01-30T04:39:32;4.00;;;2.23;;
12715;SDS011;6422;49.938;9.124;2023-01-30T04:41:58;5.07;;;2.60;;
12715;SDS011;6422;49.938;9.124;2023-01-30T04:44:23;5.25;;;3.25;;
12715;SDS011;6422;49.938;9.124;2023-01-30T04:46:48;3.67;;;2.15;;
12715;SDS011;6422;49.938;9.124;2023-01-30T04:49:13;5.70;;;3.27;;
12715;SDS011;6422;49.938;9.124;2023-01-30T04:51:38;5.30;;;3.90;;
12715;SDS011;6422;49.938;9.124;2023-01-30T04:54:03;6.00;;;3.07;;
12715;SDS011;6422;49.938;9.124;2023-01-30T04:56:30;4.37;;;2.37;;
12715;SDS011;6422;49.938;9.124;2023-01-30T04:58:55;4.05;;;2.75;;
12715;SDS011;6422;49.938;9.124;2023-01-30T05:01:24;5.18;;;3.22;;
12715;SDS011;6422;49.938;9.124;2023-01-30T05:03:50;7.10;;;2.70;;
12715;SDS011;6422;49.938;9.124;2023-01-30T05:06:16;5.70;;;2.30;;
12715;SDS011;6422;49.938;9.124;2023-01-30T05:08:41;3.20;;;2.37;;
12715;SDS011;6422;49.938;9.124;2023-01-30T05:11:06;6.37;;;2.60;;
12715;SDS011;6422;49.938;9.124;2023-01-30T05:13:31;6.53;;;4.00;;
12715;SDS011;6422;49.938;9.124;2023-01-30T05:15:57;3.97;;;2.10;;
12715;SDS011;6422;49.938;9.124;2023-01-30T05:18:22;9.00;;;3.27;;
12715;SDS011;6422;49.938;9.124;2023-01-30T05:20:47;6.22;;;3.25;;
12715;SDS011;6422;49.938;9.124;2023-01-30T05:23:12;5.05;;;2.72;;
12715;SDS011;6422;49.938;9.124;2023-01-30T05:25:37;5.23;;;2.80;;
12715;SDS011;6422;49.938;9.124;2023-01-30T05:28:02;6.35;;;3.63;;
12715;SDS011;6422;49.938;9.124;2023-01-30T05:30:28;5.73;;;3.10;;
12715;SDS011;6422;49.938;9.124;2023-01-30T05:32:53;7.03;;;3.22;;
12715;SDS011;6422;49.938;9.124;2023-01-30T05:35:18;7.20;;;3.40;;
12715;SDS011;6422;49.938;9.124;2023-01-30T05:37:43;8.97;;;4.00;;
12715;SDS011;6422;49.938;9.124;2023-01-30T05:40:08;7.88;;;3.83;;
12715;SDS011;6422;49.938;9.124;2023-01-30T05:42:34;9.00;;;4.30;;
12715;SDS011;6422;49.938;9.124;2023-01-30T05:44:59;6.07;;;3.40;;
12715;SDS011;6422;49.938;9.124;2023-01-30T05:47:24;5.82;;;3.60;;
12715;SDS011;6422;49.938;9.124;2023-01-30T05:49:49;5.77;;;3.30;;
12715;SDS011;6422;49.938;9.124;2023-01-30T05:52:14;6.45;;;3.40;;
12715;SDS011;6422;49.938;9.124;2023-01-30T05:54:40;7.47;;;3.60;;
12715;SDS011;6422;49.938;9.124;2023-01-30T05:57:05;4.78;;;3.25;;
12715;SDS011;6422;49.938;9.124;2023-01-30T05:59:30;6.73;;;4.30;;
12715;SDS011;6422;49.938;9.124;2023-01-30T06:01:55;8.30;;;4.25;;
12715;SDS011;6422;49.938;9.124;2023-01-30T06:04:20;5.10;;;2.92;;
12715;SDS011;6422;49.938;9.124;2023-01-30T06:06:47;4.43;;;2.93;;
12715;SDS011;6422;49.938;9.124;2023-01-30T06:09:12;4.87;;;3.00;;
12715;SDS011;6422;49.938;9.124;2023-01-30T06:11:37;3.75;;;1.80;;
12715;SDS011;6422;49.938;9.124;2023-01-30T06:14:03;5.20;;;2.60;;
12715;SDS011;6422;49.938;9.124;2023-01-30T06:16:28;4.82;;;2.55;;
12715;SDS011;6422;49.938;9.124;2023-01-30T06:18:53;8.70;;;3.38;;
12715;SDS011;6422;49.938;9.124;2023-01-30T06:21:18;4.53;;;2.33;;
12715;SDS011;6422;49.938;9.124;2023-01-30T06:23:43;5.35;;;2.97;;
12715;SDS011;6422;49.938;9.124;2023-01-30T06:26:08;8.63;;;3.33;;
12715;SDS011;6422;49.938;9.124;2023-01-30T06:28:34;6.80;;;3.10;;
12715;SDS011;6422;49.938;9.124;2023-01-30T06:30:59;4.63;;;2.40;;
12715;SDS011;6422;49.938;9.124;2023-01-30T06:33:25;5.10;;;2.77;;
12715;SDS011;6422;49.938;9.124;2023-01-30T06:35:50;8.20;;;3.78;;
12715;SDS011;6422;49.938;9.124;2023-01-30T06:38:16;4.97;;;3.30;;
12715;SDS011;6422;49.938;9.124;2023-01-30T06:40:43;6.07;;;2.40;;
12715;SDS011;6422;49.938;9.124;2023-01-30T06:43:09;6.87;;;2.77;;
12715;SDS011;6422;49.938;9.124;2023-01-30T06:45:34;4.80;;;2.95;;
12715;SDS011;6422;49.938;9.124;2023-01-30T06:47:59;4.25;;;2.85;;
12715;SDS011;6422;49.938;9.124;2023-01-30T06:50:26;6.10;;;3.40;;
12715;SDS011;6422;49.938;9.124;2023-01-30T06:52:51;4.53;;;2.30;;
12715;SDS011;6422;49.938;9.124;2023-01-30T06:55:21;5.85;;;3.08;;
12715;SDS011;6422;49.938;9.124;2023-01-30T06:57:46;3.60;;;1.90;;
12715;SDS011;6422;49.938;9.124;2023-01-30T07:00:13;4.10;;;2.50;;
12715;SDS011;6422;49.938;9.124;2023-01-30T07:02:39;3.03;;;2.00;;
12715;SDS011;6422;49.938;9.124;2023-01-30T07:05:04;8.17;;;2.13;;
12715;SDS011;6422;49.938;9.124;2023-01-30T07:07:30;4.40;;;2.47;;
12715;SDS011;6422;49.938;9.124;2023-01-30T07:09:56;4.10;;;1.97;;
12715;SDS011;6422;49.938;9.124;2023-01-30T07:12:21;2.67;;;1.70;;
12715;SDS011;6422;49.938;9.124;2023-01-30T07:14:46;3.10;;;2.07;;
12715;SDS011;6422;49.938;9.124;2023-01-30T07:17:11;3.65;;;2.53;;
12715;SDS011;6422;49.938;9.124;2023-01-30T07:19:37;5.07;;;2.50;;
12715;SDS011;6422;49.938;9.124;2023-01-30T07:22:03;3.47;;;2.20;;
12715;SDS011;6422;49.938;9.124;2023-01-30T07:24:28;2.60;;;1.63;;
12715;SDS011;6422;49.938;9.124;2023-01-30T07:26:53;4.43;;;2.28;;
12715;SDS011;6422;49.938;9.124;2023-01-30T07:29:18;3.78;;;1.75;;
12715;SDS011;6422;49.938;9.124;2023-01-30T07:31:43;3.83;;;2.23;;
12715;SDS011;6422;49.938;9.124;2023-01-30T07:34:08;3.00;;;1.95;;
12715;SDS011;6422;49.938;9.124;2023-01-30T07:36:34;3.40;;;2.22;;
12715;SDS011;6422;49.938;9.124;2023-01-30T07:38:59;3.80;;;2.33;;
12715;SDS011;6422;49.938;9.124;2023-01-30T07:41:27;3.90;;;2.40;;
12715;SDS011;6422;49.938;9.124;2023-01-30T07:43:52;3.27;;;2.10;;
12715;SDS011;6422;49.938;9.124;2023-01-30T07:46:17;5.50;;;2.77;;
12715;SDS011;6422;49.938;9.124;2023-01-30T07:48:43;3.33;;;2.03;;
12715;SDS011;6422;49.938;9.124;2023-01-30T07:51:08;5.60;;;1.83;;
12715;SDS011;6422;49.938;9.124;2023-01-30T07:53:33;4.63;;;2.42;;
12715;SDS011;6422;49.938;9.124;2023-01-30T07:55:58;2.80;;;2.00;;
12715;SDS011;6422;49.938;9.124;2023-01-30T07:58:24;3.90;;;1.60;;
12715;SDS011;6422;49.938;9.124;2023-01-30T08:00:49;3.65;;;1.70;;
12715;SDS011;6422;49.938;9.124;2023-01-30T08:03:15;2.28;;;1.50;;
12715;SDS011;6422;49.938;9.124;2023-01-30T08:05:40;3.40;;;1.60;;
12715;SDS011;6422;49.938;9.124;2023-01-30T08:08:06;2.70;;;2.00;;
12715;SDS011;6422;49.938;9.124;2023-01-30T08:10:31;2.70;;;1.73;;
12715;SDS011;6422;49.938;9.124;2023-01-30T08:12:56;5.75;;;2.15;;
12715;SDS011;6422;49.938;9.124;2023-01-30T08:15:21;5.00;;;2.33;;
12715;SDS011;6422;49.938;9.124;2023-01-30T08:17:53;2.20;;;1.77;;
12715;SDS011;6422;49.938;9.124;2023-01-30T08:20:19;3.30;;;1.77;;
12715;SDS011;6422;49.938;9.124;2023-01-30T08:22:44;3.05;;;1.95;;
12715;SDS011;6422;49.938;9.124;2023-01-30T08:25:09;2.70;;;2.00;;
12715;SDS011;6422;49.938;9.124;2023-01-30T08:27:34;2.67;;;1.57;;
12715;SDS011;6422;49.938;9.124;2023-01-30T08:29:59;4.20;;;2.60;;
12715;SDS011;6422;49.938;9.124;2023-01-30T08:32:24;2.97;;;1.87;;
12715;SDS011;6422;49.938;9.124;2023-01-30T08:34:50;1.95;;;1.70;;
12715;SDS011;6422;49.938;9.124;2023-01-30T08:37:15;3.80;;;1.40;;
12715;SDS011;6422;49.938;9.124;2023-01-30T08:39:40;1.87;;;1.73;;
12715;SDS011;6422;49.938;9.124;2023-01-30T08:42:05;5.22;;;2.20;;
12715;SDS011;6422;49.938;9.124;2023-01-30T08:44:30;3.25;;;1.95;;
12715;SDS011;6422;49.938;9.124;2023-01-30T08:46:55;2.65;;;1.27;;
12715;SDS011;6422;49.938;9.124;2023-01-30T08:49:20;4.50;;;2.70;;
12715;SDS011;6422;49.938;9.124;2023-01-30T08:51:46;3.53;;;2.17;;
12715;SDS011;6422;49.938;9.124;2023-01-30T08:54:11;5.65;;;1.73;;
12715;SDS011;6422;49.938;9.124;2023-01-30T08:56:36;3.40;;;2.40;;
12715;SDS011;6422;49.938;9.124;2023-01-30T08:59:01;4.18;;;2.47;;
12715;SDS011;6422;49.938;9.124;2023-01-30T09:01:26;1.93;;;1.40;;
12715;SDS011;6422;49.938;9.124;2023-01-30T09:03:51;3.73;;;1.73;;
12715;SDS011;6422;49.938;9.124;2023-01-30T09:06:16;3.00;;;2.10;;
12715;SDS011;6422;49.938;9.124;2023-01-30T09:08:42;1.57;;;1.47;;
12715;SDS011;6422;49.938;9.124;2023-01-30T09:11:07;5.70;;;1.70;;
12715;SDS011;6422;49.938;9.124;2023-01-30T09:13:33;2.20;;;2.00;;
12715;SDS011;6422;49.938;9.124;2023-01-30T09:15:58;4.05;;;1.73;;
12715;SDS011;6422;49.938;9.124;2023-01-30T09:18:23;3.33;;;1.92;;
12715;SDS011;6422;49.938;9.124;2023-01-30T09:20:48;4.87;;;2.50;;
12715;SDS011;6422;49.938;9.124;2023-01-30T09:23:14;2.33;;;1.97;;
12715;SDS011;6422;49.938;9.124;2023-01-30T09:25:39;2.30;;;1.70;;
12715;SDS011;6422;49.938;9.124;2023-01-30T09:28:04;2.08;;;1.80;;
12715;SDS011;6422;49.938;9.124;2023-01-30T09:30:29;2.17;;;1.87;;
12715;SDS011;6422;49.938;9.124;2023-01-30T09:32:54;3.47;;;2.07;;
12715;SDS011;6422;49.938;9.124;2023-01-30T09:35:19;2.30;;;1.77;;
12715;SDS011;6422;49.938;9.124;2023-01-30T09:37:45;4.33;;;1.73;;
12715;SDS011;6422;49.938;9.124;2023-01-30T09:40:12;3.60;;;1.53;;
12715;SDS011;6422;49.938;9.124;2023-01-30T09:45:35;2.23;;;1.70;;
12715;SDS011;6422;49.938;9.124;2023-01-30T09:50:55;3.53;;;1.97;;
12715;SDS011;6422;49.938;9.124;2023-01-30T09:53:30;2.53;;;1.70;;
12715;SDS011;6422;49.938;9.124;2023-01-30T09:55:58;4.30;;;2.00;;
12715;SDS011;6422;49.938;9.124;2023-01-30T09:58:24;2.27;;;1.67;;
12715;SDS011;6422;49.938;9.124;2023-01-30T10:00:52;1.60;;;1.17;;
12715;SDS011;6422;49.938;9.124;2023-01-30T10:03:19;1.60;;;1.47;;
12715;SDS011;6422;49.938;9.124;2023-01-30T10:05:49;2.00;;;1.80;;
12715;SDS011;6422;49.938;9.124;2023-01-30T10:10:58;2.93;;;1.57;;
12715;SDS011;6422;49.938;9.124;2023-01-30T10:16:17;2.63;;;1.50;;
12715;SDS011;6422;49.938;9.124;2023-01-30T10:18:51;4.33;;;2.37;;
12715;SDS011;6422;49.938;9.124;2023-01-30T10:21:26;7.57;;;2.90;;
12715;SDS011;6422;49.938;9.124;2023-01-30T10:26:28;8.20;;;4.47;;
12715;SDS011;6422;49.938;9.124;2023-01-30T10:29:05;4.50;;;2.40;;
12715;SDS011;6422;49.938;9.124;2023-01-30T10:31:42;5.63;;;2.67;;
12715;SDS011;6422;49.938;9.124;2023-01-30T10:34:21;4.83;;;2.63;;
12715;SDS011;6422;49.938;9.124;2023-01-30T10:36:51;12.43;;;2.80;;
12715;SDS011;6422;49.938;9.124;2023-01-30T10:39:23;1.43;;;1.23;;
12715;SDS011;6422;49.938;9.124;2023-01-30T10:41:51;3.23;;;1.83;;
12715;SDS011;6422;49.938;9.124;2023-01-30T10:44:19;4.97;;;2.17;;
12715;SDS011;6422;49.938;9.124;2023-01-30T10:51:51;0.97;;;0.97;;
12715;SDS011;6422;49.938;9.124;2023-01-30T10:57:06;3.13;;;1.30;;
12715;SDS011;6422;49.938;9.124;2023-01-30T10:59:42;2.50;;;1.23;;
12715;SDS011;6422;49.938;9.124;2023-01-30T11:02:23;1.90;;;1.27;;
12715;SDS011;6422;49.938;9.124;2023-01-30T11:07:22;2.20;;;1.10;;
12715;SDS011;6422;49.938;9.124;2023-01-30T11:09:47;3.40;;;1.20;;
12715;SDS011;6422;49.938;9.124;2023-01-30T11:12:13;1.80;;;0.90;;
12715;SDS011;6422;49.938;9.124;2023-01-30T11:14:51;1.60;;;0.80;;
12715;SDS011;6422;49.938;9.124;2023-01-30T11:17:17;2.17;;;1.20;;
12715;SDS011;6422;49.938;9.124;2023-01-30T11:19:43;1.00;;;0.97;;
12715;SDS011;6422;49.938;9.124;2023-01-30T11:22:09;1.87;;;0.77;;
12715;SDS011;6422;49.938;9.124;2023-01-30T11:24:39;1.40;;;1.00;;
12715;SDS011;6422;49.938;9.124;2023-01-30T11:32:36;1.80;;;1.10;;
12715;SDS011;6422;49.938;9.124;2023-01-30T11:35:03;1.03;;;0.97;;
12715;SDS011;6422;49.938;9.124;2023-01-30T11:37:36;1.83;;;1.00;;
12715;SDS011;6422;49.938;9.124;2023-01-30T11:42:42;0.97;;;0.87;;
12715;SDS011;6422;49.938;9.124;2023-01-30T11:45:09;9.57;;;2.77;;
12715;SDS011;6422;49.938;9.124;2023-01-30T11:47:35;6.17;;;2.97;;
12715;SDS011;6422;49.938;9.124;2023-01-30T11:50:00;2.90;;;1.57;;
12715;SDS011;6422;49.938;9.124;2023-01-30T11:52:30;7.10;;;2.03;;
12715;SDS011;6422;49.938;9.124;2023-01-30T11:54:59;3.10;;;1.53;;
12715;SDS011;6422;49.938;9.124;2023-01-30T11:57:27;6.17;;;2.90;;
12715;SDS011;6422;49.938;9.124;2023-01-30T11:59:53;5.30;;;2.00;;
12715;SDS011;6422;49.938;9.124;2023-01-30T12:02:20;2.57;;;1.40;;
12715;SDS011;6422;49.938;9.124;2023-01-30T12:04:48;1.40;;;1.30;;
12715;SDS011;6422;49.938;9.124;2023-01-30T12:07:17;1.17;;;1.00;;
12715;SDS011;6422;49.938;9.124;2023-01-30T12:09:43;1.07;;;0.93;;
12715;SDS011;6422;49.938;9.124;2023-01-30T12:12:22;1.37;;;1.13;;
12715;SDS011;6422;49.938;9.124;2023-01-30T12:14:50;1.20;;;0.90;;
12715;SDS011;6422;49.938;9.124;2023-01-30T12:22:38;0.73;;;0.73;;
12715;SDS011;6422;49.938;9.124;2023-01-30T12:25:08;1.10;;;0.90;;
12715;SDS011;6422;49.938;9.124;2023-01-30T12:27:51;1.87;;;0.73;;
12715;SDS011;6422;49.938;9.124;2023-01-30T12:30:24;1.03;;;0.90;;
12715;SDS011;6422;49.938;9.124;2023-01-30T12:32:51;2.97;;;0.70;;
12715;SDS011;6422;49.938;9.124;2023-01-30T12:35:18;1.87;;;0.90;;
12715;SDS011;6422;49.938;9.124;2023-01-30T12:38:01;3.53;;;1.07;;
12715;SDS011;6422;49.938;9.124;2023-01-30T12:40:31;1.17;;;0.97;;
12715;SDS011;6422;49.938;9.124;2023-01-30T12:43:07;1.60;;;0.90;;
12715;SDS011;6422;49.938;9.124;2023-01-30T12:51:30;1.20;;;0.80;;
12715;SDS011;6422;49.938;9.124;2023-01-30T12:54:40;0.70;;;0.60;;
12715;SDS011;6422;49.938;9.124;2023-01-30T12:56:51;1.07;;;0.83;;
12715;SDS011;6422;49.938;9.124;2023-01-30T12:59:21;1.10;;;1.00;;
12715;SDS011;6422;49.938;9.124;2023-01-30T13:04:23;1.53;;;1.00;;
12715;SDS011;6422;49.938;9.124;2023-01-30T13:11:59;1.50;;;0.80;;
12715;SDS011;6422;49.938;9.124;2023-01-30T13:17:00;1.10;;;1.00;;
12715;SDS011;6422;49.938;9.124;2023-01-30T13:19:30;3.60;;;1.00;;
12715;SDS011;6422;49.938;9.124;2023-01-30T13:22:02;0.90;;;0.70;;
12715;SDS011;6422;49.938;9.124;2023-01-30T13:24:45;1.20;;;0.80;;
12715;SDS011;6422;49.938;9.124;2023-01-30T13:27:14;1.17;;;0.93;;
12715;SDS011;6422;49.938;9.124;2023-01-30T13:29:39;1.47;;;1.00;;
12715;SDS011;6422;49.938;9.124;2023-01-30T13:32:11;3.60;;;1.13;;
12715;SDS011;6422;49.938;9.124;2023-01-30T13:34:40;1.87;;;1.20;;
12715;SDS011;6422;49.938;9.124;2023-01-30T13:37:07;2.20;;;1.00;;
12715;SDS011;6422;49.938;9.124;2023-01-30T13:42:00;3.20;;;1.10;;
12715;SDS011;6422;49.938;9.124;2023-01-30T13:44:30;2.10;;;1.05;;
12715;SDS011;6422;49.938;9.124;2023-01-30T13:46:56;1.77;;;0.97;;
12715;SDS011;6422;49.938;9.124;2023-01-30T13:51:53;2.00;;;1.20;;
12715;SDS011;6422;49.938;9.124;2023-01-30T13:54:24;2.73;;;1.20;;
12715;SDS011;6422;49.938;9.124;2023-01-30T13:57:00;0.97;;;0.80;;
12715;SDS011;6422;49.938;9.124;2023-01-30T14:09:32;1.70;;;1.30;;
12715;SDS011;6422;49.938;9.124;2023-01-30T14:11:59;4.10;;;1.70;;
12715;SDS011;6422;49.938;9.124;2023-01-30T14:14:26;0.70;;;0.70;;
12715;SDS011;6422;49.938;9.124;2023-01-30T14:16:53;1.57;;;0.93;;
12715;SDS011;6422;49.938;9.124;2023-01-30T14:19:38;1.17;;;1.07;;
12715;SDS011;6422;49.938;9.124;2023-01-30T14:24:41;3.27;;;1.03;;
12715;SDS011;6422;49.938;9.124;2023-01-30T14:27:20;1.93;;;1.20;;
12715;SDS011;6422;49.938;9.124;2023-01-30T14:34:45;2.05;;;0.80;;
12715;SDS011;6422;49.938;9.124;2023-01-30T14:39:56;1.77;;;1.10;;
12715;SDS011;6422;49.938;9.124;2023-01-30T14:42:25;1.10;;;1.00;;
12715;SDS011;6422;49.938;9.124;2023-01-30T14:44:57;1.60;;;1.00;;
12715;SDS011;6422;49.938;9.124;2023-01-30T14:47:23;3.70;;;2.63;;
12715;SDS011;6422;49.938;9.124;2023-01-30T14:49:48;3.60;;;2.40;;
12715;SDS011;6422;49.938;9.124;2023-01-30T14:52:31;3.27;;;1.87;;
12715;SDS011;6422;49.938;9.124;2023-01-30T14:54:58;1.20;;;0.97;;
12715;SDS011;6422;49.938;9.124;2023-01-30T14:57:26;3.27;;;1.47;;
12715;SDS011;6422;49.938;9.124;2023-01-30T14:59:58;1.20;;;1.10;;
12715;SDS011;6422;49.938;9.124;2023-01-30T15:02:28;2.93;;;1.90;;
12715;SDS011;6422;49.938;9.124;2023-01-30T15:07:23;1.80;;;0.90;;
12715;SDS011;6422;49.938;9.124;2023-01-30T15:09:55;1.27;;;0.80;;
12715;SDS011;6422;49.938;9.124;2023-01-30T15:17:20;1.03;;;0.80;;
12715;SDS011;6422;49.938;9.124;2023-01-30T15:20:02;1.20;;;1.00;;
12715;SDS011;6422;49.938;9.124;2023-01-30T15:22:35;1.50;;;1.00;;
12715;SDS011;6422;49.938;9.124;2023-01-30T15:32:28;1.43;;;1.03;;
12715;SDS011;6422;49.938;9.124;2023-01-30T15:35:00;2.40;;;1.50;;
12715;SDS011;6422;49.938;9.124;2023-01-30T15:42:45;4.80;;;1.30;;
12715;SDS011;6422;49.938;9.124;2023-01-30T15:45:12;1.07;;;0.87;;
12715;SDS011;6422;49.938;9.124;2023-01-30T15:50:12;2.00;;;1.43;;
12715;SDS011;6422;49.938;9.124;2023-01-30T15:52:47;3.03;;;1.03;;
12715;SDS011;6422;49.938;9.124;2023-01-30T15:55:17;2.10;;;1.07;;
12715;SDS011;6422;49.938;9.124;2023-01-30T15:57:44;1.63;;;1.07;;
12715;SDS011;6422;49.938;9.124;2023-01-30T16:00:13;2.97;;;1.10;;
12715;SDS011;6422;49.938;9.124;2023-01-30T16:02:43;0.70;;;0.70;;
12715;SDS011;6422;49.938;9.124;2023-01-30T16:05:15;1.07;;;0.70;;
12715;SDS011;6422;49.938;9.124;2023-01-30T16:07:41;0.80;;;0.80;;
12715;SDS011;6422;49.938;9.124;2023-01-30T16:10:42;1.47;;;1.10;;
12715;SDS011;6422;49.938;9.124;2023-01-30T16:13:00;0.83;;;0.83;;
12715;SDS011;6422;49.938;9.124;2023-01-30T16:15:31;4.57;;;1.10;;
12715;SDS011;6422;49.938;9.124;2023-01-30T16:20:44;1.00;;;0.90;;
12715;SDS011;6422;49.938;9.124;2023-01-30T16:23:24;0.77;;;0.77;;
12715;SDS011;6422;49.938;9.124;2023-01-30T16:25:52;1.20;;;0.77;;
12715;SDS011;6422;49.938;9.124;2023-01-30T16:28:20;4.57;;;1.73;;
12715;SDS011;6422;49.938;9.124;2023-01-30T16:30:46;0.80;;;0.80;;
12715;SDS011;6422;49.938;9.124;2023-01-30T16:33:13;2.10;;;1.00;;
12715;SDS011;6422;49.938;9.124;2023-01-30T16:35:45;2.90;;;1.40;;
12715;SDS011;6422;49.938;9.124;2023-01-30T16:38:27;1.00;;;0.70;;
12715;SDS011;6422;49.938;9.124;2023-01-30T16:40:54;2.40;;;1.03;;
12715;SDS011;6422;49.938;9.124;2023-01-30T16:43:22;6.27;;;1.60;;
12715;SDS011;6422;49.938;9.124;2023-01-30T16:50:41;2.50;;;1.30;;
12715;SDS011;6422;49.938;9.124;2023-01-30T16:53:11;1.97;;;1.70;;
12715;SDS011;6422;49.938;9.124;2023-01-30T16:55:36;4.87;;;1.60;;
12715;SDS011;6422;49.938;9.124;2023-01-30T16:58:01;1.45;;;1.00;;
12715;SDS011;6422;49.938;9.124;2023-01-30T17:00:30;1.07;;;0.80;;
12715;SDS011;6422;49.938;9.124;2023-01-30T17:02:57;4.13;;;1.23;;
12715;SDS011;6422;49.938;9.124;2023-01-30T17:05:29;1.90;;;1.03;;
12715;SDS011;6422;49.938;9.124;2023-01-30T17:07:55;4.60;;;1.60;;